Strona główna
METAR-TAF:

METAR-TAF

Lotnisko :

Easton, Maryland, Stany Zjednoczone

Szerokość geograficzna: 38-48N, Długość geograficzna: 076-04W, wysokość: 22 m

Aktualna obserwacja pogody

Raport powstał 54 minut temu, godzina 01:50 UTC
Wiatr 6 kt od południowo-południowy zachód
Temperatura 28°C
Wilgotność 58%
Ciśnienie 1008 hPa
Widzialność: 16.1 km
bezchmurnie

METAR: KESN 040150Z 20006KT 10SM SKC 28/19 A2977

czas: 22:44 (02:44 UTC)


TAF: brakujący

Obserwacja i prognoza pogody dla ponad 4000 lotnisk (raport METAR i TAF).

Dostępne stacje oznaczono żółtymi i czerwonymi punktami na mapie.

Najedź kursorem aby zobaczyć nazwę stacji.

Kliknij aby zobaczyć obserwacje i prognozy pogody.

Aby zmienić mapę: kliknij na zielony przycisk z czarnym krzyżykiem, aby powiększyć; na zielony przycisk z myślnikiem, aby pomniejszyć; na zielone strzałki, aby przejść do map sąsiednich.


METAR-TAF: